O'Brien, Oregon
Current Conditions -  °F | °C
As of 3:56 PM on Friday 24 Oct 2014 (Local Time) from KBOK Reporting Station
Overcast Overcast  
Wind Chill: 66°   Ceiling: 4400
Heat Index: 66°   Visibility: 9mi
Dew Point: 57°   Wind: 13mph
Humidity: 73%   Direction: 150°SSE
Pressure: 29.76"   Gusts: 20mph
Location:  42.07°N, 123.71°W
Report Text: KBOK 242256Z AUTO 15011G17KT 9SM OVC044 19/14 A2976 RMK AO2 T01880138 OVC V BKN SLP078
Loading
Personal Weather Stations






























Interactive Weather Map
Tropical Storm Tracking
New forecast layout! Learn more

10-Day Weather Forecast

Advertisements
Track Severe Weather on mobile